sensor_id;sensor_type;location;lat;lon;timestamp;temperature;humidity
16995;DHT22;8614;48.522;9.206;2023-09-18T00:02:10;20.80;99.90
16995;DHT22;8614;48.522;9.206;2023-09-18T00:04:37;20.80;99.90
16995;DHT22;8614;48.522;9.206;2023-09-18T00:07:04;20.90;99.90
16995;DHT22;8614;48.522;9.206;2023-09-18T00:09:32;20.90;99.90
16995;DHT22;8614;48.522;9.206;2023-09-18T00:11:59;20.90;99.90
16995;DHT22;8614;48.522;9.206;2023-09-18T00:14:26;21.00;99.90
16995;DHT22;8614;48.522;9.206;2023-09-18T00:16:53;21.00;99.90
16995;DHT22;8614;48.522;9.206;2023-09-18T00:19:22;21.00;99.90
16995;DHT22;8614;48.522;9.206;2023-09-18T00:21:49;21.00;99.90
16995;DHT22;8614;48.522;9.206;2023-09-18T00:24:17;21.10;99.90
16995;DHT22;8614;48.522;9.206;2023-09-18T00:26:45;21.10;99.90
16995;DHT22;8614;48.522;9.206;2023-09-18T00:29:13;21.00;99.90
16995;DHT22;8614;48.522;9.206;2023-09-18T00:31:40;20.90;99.90
16995;DHT22;8614;48.522;9.206;2023-09-18T00:34:07;20.80;99.90
16995;DHT22;8614;48.522;9.206;2023-09-18T00:36:34;20.70;99.90
16995;DHT22;8614;48.522;9.206;2023-09-18T00:39:00;20.50;99.90
16995;DHT22;8614;48.522;9.206;2023-09-18T00:41:27;20.30;99.90
16995;DHT22;8614;48.522;9.206;2023-09-18T00:43:55;20.20;99.90
16995;DHT22;8614;48.522;9.206;2023-09-18T00:46:22;20.00;99.90
16995;DHT22;8614;48.522;9.206;2023-09-18T00:48:50;19.90;99.90
16995;DHT22;8614;48.522;9.206;2023-09-18T00:51:17;19.90;99.90
16995;DHT22;8614;48.522;9.206;2023-09-18T00:53:45;19.80;99.90
16995;DHT22;8614;48.522;9.206;2023-09-18T00:56:15;19.80;99.90
16995;DHT22;8614;48.522;9.206;2023-09-18T00:58:42;19.90;99.90
16995;DHT22;8614;48.522;9.206;2023-09-18T01:01:12;19.90;99.90
16995;DHT22;8614;48.522;9.206;2023-09-18T01:03:42;20.00;99.90
16995;DHT22;8614;48.522;9.206;2023-09-18T01:06:08;20.10;99.90
16995;DHT22;8614;48.522;9.206;2023-09-18T01:08:35;20.10;99.90
16995;DHT22;8614;48.522;9.206;2023-09-18T01:11:06;20.10;99.90
16995;DHT22;8614;48.522;9.206;2023-09-18T01:13:41;20.10;99.90
16995;DHT22;8614;48.522;9.206;2023-09-18T01:16:13;20.00;99.90
16995;DHT22;8614;48.522;9.206;2023-09-18T01:18:48;19.90;99.90
16995;DHT22;8614;48.522;9.206;2023-09-18T01:21:15;19.90;99.90
16995;DHT22;8614;48.522;9.206;2023-09-18T01:23:43;19.80;99.90
16995;DHT22;8614;48.522;9.206;2023-09-18T01:26:10;19.80;99.90
16995;DHT22;8614;48.522;9.206;2023-09-18T01:28:39;19.60;99.90
16995;DHT22;8614;48.522;9.206;2023-09-18T01:31:06;19.60;99.90
16995;DHT22;8614;48.522;9.206;2023-09-18T01:33:34;19.60;99.90
16995;DHT22;8614;48.522;9.206;2023-09-18T01:36:03;19.50;99.90
16995;DHT22;8614;48.522;9.206;2023-09-18T01:38:31;19.50;99.90
16995;DHT22;8614;48.522;9.206;2023-09-18T01:41:01;19.50;99.90
16995;DHT22;8614;48.522;9.206;2023-09-18T01:43:27;19.50;99.90
16995;DHT22;8614;48.522;9.206;2023-09-18T01:45:56;19.50;99.90
16995;DHT22;8614;48.522;9.206;2023-09-18T01:48:23;19.50;99.90
16995;DHT22;8614;48.522;9.206;2023-09-18T01:50:50;19.50;99.90
16995;DHT22;8614;48.522;9.206;2023-09-18T01:53:16;19.50;99.90
16995;DHT22;8614;48.522;9.206;2023-09-18T01:55:43;19.50;99.90
16995;DHT22;8614;48.522;9.206;2023-09-18T01:58:12;19.50;99.90
16995;DHT22;8614;48.522;9.206;2023-09-18T02:00:39;19.50;99.90
16995;DHT22;8614;48.522;9.206;2023-09-18T02:03:06;19.40;99.90
16995;DHT22;8614;48.522;9.206;2023-09-18T02:05:33;19.30;99.90
16995;DHT22;8614;48.522;9.206;2023-09-18T02:08:02;19.30;99.90
16995;DHT22;8614;48.522;9.206;2023-09-18T02:10:29;19.20;99.90
16995;DHT22;8614;48.522;9.206;2023-09-18T02:12:56;19.20;99.90
16995;DHT22;8614;48.522;9.206;2023-09-18T02:15:24;19.10;99.90
16995;DHT22;8614;48.522;9.206;2023-09-18T02:17:52;19.10;99.90
16995;DHT22;8614;48.522;9.206;2023-09-18T02:20:19;19.10;99.90
16995;DHT22;8614;48.522;9.206;2023-09-18T02:22:46;19.10;99.90
16995;DHT22;8614;48.522;9.206;2023-09-18T02:25:14;19.10;99.90
16995;DHT22;8614;48.522;9.206;2023-09-18T02:27:41;19.10;99.90
16995;DHT22;8614;48.522;9.206;2023-09-18T02:30:08;19.10;99.90
16995;DHT22;8614;48.522;9.206;2023-09-18T02:32:37;19.20;99.90
16995;DHT22;8614;48.522;9.206;2023-09-18T02:35:05;19.10;99.90
16995;DHT22;8614;48.522;9.206;2023-09-18T02:37:32;19.20;99.90
16995;DHT22;8614;48.522;9.206;2023-09-18T02:39:59;19.10;99.90
16995;DHT22;8614;48.522;9.206;2023-09-18T02:42:26;19.20;99.90
16995;DHT22;8614;48.522;9.206;2023-09-18T02:44:53;19.10;99.90
16995;DHT22;8614;48.522;9.206;2023-09-18T02:47:20;19.20;99.90
16995;DHT22;8614;48.522;9.206;2023-09-18T02:49:48;19.10;99.90
16995;DHT22;8614;48.522;9.206;2023-09-18T02:52:15;19.10;99.90
16995;DHT22;8614;48.522;9.206;2023-09-18T02:54:41;19.00;99.90
16995;DHT22;8614;48.522;9.206;2023-09-18T02:57:08;19.00;99.90
16995;DHT22;8614;48.522;9.206;2023-09-18T02:59:35;18.90;99.90
16995;DHT22;8614;48.522;9.206;2023-09-18T03:02:02;18.90;99.90
16995;DHT22;8614;48.522;9.206;2023-09-18T03:04:29;18.90;99.90
16995;DHT22;8614;48.522;9.206;2023-09-18T03:06:58;18.90;99.90
16995;DHT22;8614;48.522;9.206;2023-09-18T03:09:25;18.80;99.90
16995;DHT22;8614;48.522;9.206;2023-09-18T03:12:01;18.70;99.90
16995;DHT22;8614;48.522;9.206;2023-09-18T03:14:50;18.60;99.90
16995;DHT22;8614;48.522;9.206;2023-09-18T03:17:27;18.60;99.90
16995;DHT22;8614;48.522;9.206;2023-09-18T03:20:00;18.50;99.90
16995;DHT22;8614;48.522;9.206;2023-09-18T03:22:28;18.50;99.90
16995;DHT22;8614;48.522;9.206;2023-09-18T03:24:55;18.50;99.90
16995;DHT22;8614;48.522;9.206;2023-09-18T03:27:22;18.40;99.90
16995;DHT22;8614;48.522;9.206;2023-09-18T03:30:20;18.40;99.90
16995;DHT22;8614;48.522;9.206;2023-09-18T03:32:49;18.40;99.90
16995;DHT22;8614;48.522;9.206;2023-09-18T03:35:18;18.40;99.90
16995;DHT22;8614;48.522;9.206;2023-09-18T03:37:49;18.30;99.90
16995;DHT22;8614;48.522;9.206;2023-09-18T03:40:18;18.40;99.90
16995;DHT22;8614;48.522;9.206;2023-09-18T03:42:45;18.30;99.90
16995;DHT22;8614;48.522;9.206;2023-09-18T03:45:12;18.40;99.90
16995;DHT22;8614;48.522;9.206;2023-09-18T03:47:41;18.40;99.90
16995;DHT22;8614;48.522;9.206;2023-09-18T03:50:08;18.40;99.90
16995;DHT22;8614;48.522;9.206;2023-09-18T03:52:37;18.50;99.90
16995;DHT22;8614;48.522;9.206;2023-09-18T03:55:06;18.50;99.90
16995;DHT22;8614;48.522;9.206;2023-09-18T03:57:33;18.60;99.90
16995;DHT22;8614;48.522;9.206;2023-09-18T04:00:01;18.60;99.90
16995;DHT22;8614;48.522;9.206;2023-09-18T04:02:37;18.60;99.90
16995;DHT22;8614;48.522;9.206;2023-09-18T04:05:05;18.60;99.90
16995;DHT22;8614;48.522;9.206;2023-09-18T04:07:33;18.60;99.90
16995;DHT22;8614;48.522;9.206;2023-09-18T04:10:00;18.60;99.90
16995;DHT22;8614;48.522;9.206;2023-09-18T04:12:29;18.60;99.90
16995;DHT22;8614;48.522;9.206;2023-09-18T04:14:56;18.70;99.90
16995;DHT22;8614;48.522;9.206;2023-09-18T04:17:23;18.70;99.90
16995;DHT22;8614;48.522;9.206;2023-09-18T04:19:51;18.70;99.90
16995;DHT22;8614;48.522;9.206;2023-09-18T04:22:17;18.70;99.90
16995;DHT22;8614;48.522;9.206;2023-09-18T04:24:44;18.70;99.90
16995;DHT22;8614;48.522;9.206;2023-09-18T04:27:11;18.70;99.90
16995;DHT22;8614;48.522;9.206;2023-09-18T04:29:39;18.80;99.90
16995;DHT22;8614;48.522;9.206;2023-09-18T04:32:06;18.80;99.90
16995;DHT22;8614;48.522;9.206;2023-09-18T04:34:33;18.90;99.90
16995;DHT22;8614;48.522;9.206;2023-09-18T04:37:00;18.90;99.90
16995;DHT22;8614;48.522;9.206;2023-09-18T04:39:29;18.90;99.90
16995;DHT22;8614;48.522;9.206;2023-09-18T04:42:01;18.90;99.90
16995;DHT22;8614;48.522;9.206;2023-09-18T04:44:30;19.00;99.90
16995;DHT22;8614;48.522;9.206;2023-09-18T04:46:58;19.00;99.90
16995;DHT22;8614;48.522;9.206;2023-09-18T04:49:26;19.00;99.90
16995;DHT22;8614;48.522;9.206;2023-09-18T04:51:54;19.00;99.90
16995;DHT22;8614;48.522;9.206;2023-09-18T04:54:22;19.00;99.90
16995;DHT22;8614;48.522;9.206;2023-09-18T04:56:48;19.00;99.90
16995;DHT22;8614;48.522;9.206;2023-09-18T04:59:15;19.00;99.90
16995;DHT22;8614;48.522;9.206;2023-09-18T05:01:43;19.00;99.90
16995;DHT22;8614;48.522;9.206;2023-09-18T05:04:11;19.00;99.90
16995;DHT22;8614;48.522;9.206;2023-09-18T05:06:39;19.00;99.90
16995;DHT22;8614;48.522;9.206;2023-09-18T05:09:07;19.00;99.90
16995;DHT22;8614;48.522;9.206;2023-09-18T05:11:34;19.10;99.90
16995;DHT22;8614;48.522;9.206;2023-09-18T05:14:01;19.10;99.90
16995;DHT22;8614;48.522;9.206;2023-09-18T05:16:28;19.20;99.90
16995;DHT22;8614;48.522;9.206;2023-09-18T05:18:55;19.20;99.90
16995;DHT22;8614;48.522;9.206;2023-09-18T05:21:23;19.20;99.90
16995;DHT22;8614;48.522;9.206;2023-09-18T05:23:52;19.20;99.90
16995;DHT22;8614;48.522;9.206;2023-09-18T05:26:20;19.30;99.90
16995;DHT22;8614;48.522;9.206;2023-09-18T05:28:49;19.30;99.90
16995;DHT22;8614;48.522;9.206;2023-09-18T05:31:16;19.30;99.90
16995;DHT22;8614;48.522;9.206;2023-09-18T05:33:43;19.30;99.90
16995;DHT22;8614;48.522;9.206;2023-09-18T05:36:10;19.40;99.90
16995;DHT22;8614;48.522;9.206;2023-09-18T05:38:40;19.40;99.90
16995;DHT22;8614;48.522;9.206;2023-09-18T05:41:07;19.40;99.90
16995;DHT22;8614;48.522;9.206;2023-09-18T05:43:34;19.50;99.90
16995;DHT22;8614;48.522;9.206;2023-09-18T05:46:01;19.60;99.90
16995;DHT22;8614;48.522;9.206;2023-09-18T05:48:28;19.60;99.90
16995;DHT22;8614;48.522;9.206;2023-09-18T05:50:55;19.70;99.90
16995;DHT22;8614;48.522;9.206;2023-09-18T05:53:21;19.80;99.90
16995;DHT22;8614;48.522;9.206;2023-09-18T05:55:49;19.90;99.90
16995;DHT22;8614;48.522;9.206;2023-09-18T05:58:16;19.90;99.90
16995;DHT22;8614;48.522;9.206;2023-09-18T06:00:47;19.90;99.90
16995;DHT22;8614;48.522;9.206;2023-09-18T06:03:14;20.00;99.90
16995;DHT22;8614;48.522;9.206;2023-09-18T06:05:44;20.00;99.90
16995;DHT22;8614;48.522;9.206;2023-09-18T06:08:11;20.00;99.90
16995;DHT22;8614;48.522;9.206;2023-09-18T06:10:38;20.00;99.90
16995;DHT22;8614;48.522;9.206;2023-09-18T06:13:07;20.10;99.90
16995;DHT22;8614;48.522;9.206;2023-09-18T06:15:34;20.10;99.90
16995;DHT22;8614;48.522;9.206;2023-09-18T06:18:01;20.20;99.90
16995;DHT22;8614;48.522;9.206;2023-09-18T06:20:28;20.20;99.90
16995;DHT22;8614;48.522;9.206;2023-09-18T06:22:55;20.20;99.90
16995;DHT22;8614;48.522;9.206;2023-09-18T06:25:22;20.20;99.90
16995;DHT22;8614;48.522;9.206;2023-09-18T06:27:50;20.20;99.90
16995;DHT22;8614;48.522;9.206;2023-09-18T06:30:18;20.20;99.90
16995;DHT22;8614;48.522;9.206;2023-09-18T06:32:45;20.10;99.90
16995;DHT22;8614;48.522;9.206;2023-09-18T06:35:11;20.10;99.90
16995;DHT22;8614;48.522;9.206;2023-09-18T06:37:38;20.10;99.90
16995;DHT22;8614;48.522;9.206;2023-09-18T06:40:06;20.10;99.90
16995;DHT22;8614;48.522;9.206;2023-09-18T06:42:33;20.10;99.90
16995;DHT22;8614;48.522;9.206;2023-09-18T06:45:00;20.10;99.90
16995;DHT22;8614;48.522;9.206;2023-09-18T06:47:29;20.10;99.90
16995;DHT22;8614;48.522;9.206;2023-09-18T06:49:56;20.20;99.90
16995;DHT22;8614;48.522;9.206;2023-09-18T06:52:23;20.20;99.90
16995;DHT22;8614;48.522;9.206;2023-09-18T06:54:50;20.30;99.90
16995;DHT22;8614;48.522;9.206;2023-09-18T06:57:17;20.30;99.90
16995;DHT22;8614;48.522;9.206;2023-09-18T06:59:46;20.30;99.90
16995;DHT22;8614;48.522;9.206;2023-09-18T07:02:13;20.30;99.90
16995;DHT22;8614;48.522;9.206;2023-09-18T07:04:42;20.40;99.90
16995;DHT22;8614;48.522;9.206;2023-09-18T07:07:11;20.40;99.90
16995;DHT22;8614;48.522;9.206;2023-09-18T07:09:39;20.50;99.90
16995;DHT22;8614;48.522;9.206;2023-09-18T07:12:07;20.60;99.90
16995;DHT22;8614;48.522;9.206;2023-09-18T07:14:34;20.50;99.90
16995;DHT22;8614;48.522;9.206;2023-09-18T07:17:01;20.60;99.90
16995;DHT22;8614;48.522;9.206;2023-09-18T07:19:28;20.70;99.90
16995;DHT22;8614;48.522;9.206;2023-09-18T07:21:56;20.80;99.90
16995;DHT22;8614;48.522;9.206;2023-09-18T07:24:24;20.80;99.90
16995;DHT22;8614;48.522;9.206;2023-09-18T07:26:51;20.90;99.90
16995;DHT22;8614;48.522;9.206;2023-09-18T07:29:17;20.90;99.90
16995;DHT22;8614;48.522;9.206;2023-09-18T07:31:46;21.00;99.90
16995;DHT22;8614;48.522;9.206;2023-09-18T07:34:13;21.00;99.90
16995;DHT22;8614;48.522;9.206;2023-09-18T07:36:42;21.00;99.90
16995;DHT22;8614;48.522;9.206;2023-09-18T07:39:11;21.00;99.90
16995;DHT22;8614;48.522;9.206;2023-09-18T07:41:38;21.00;99.90
16995;DHT22;8614;48.522;9.206;2023-09-18T07:44:05;21.00;99.90
16995;DHT22;8614;48.522;9.206;2023-09-18T07:46:32;21.20;99.90
16995;DHT22;8614;48.522;9.206;2023-09-18T07:48:59;21.20;99.90
16995;DHT22;8614;48.522;9.206;2023-09-18T07:51:25;21.40;99.90
16995;DHT22;8614;48.522;9.206;2023-09-18T07:53:52;21.50;99.90
16995;DHT22;8614;48.522;9.206;2023-09-18T07:56:20;21.60;99.90
16995;DHT22;8614;48.522;9.206;2023-09-18T07:58:47;21.80;99.90
16995;DHT22;8614;48.522;9.206;2023-09-18T08:01:14;21.90;99.90
16995;DHT22;8614;48.522;9.206;2023-09-18T08:03:42;22.10;99.90
16995;DHT22;8614;48.522;9.206;2023-09-18T08:06:09;22.20;99.90
16995;DHT22;8614;48.522;9.206;2023-09-18T08:08:37;22.30;99.90
16995;DHT22;8614;48.522;9.206;2023-09-18T08:11:07;22.30;99.90
16995;DHT22;8614;48.522;9.206;2023-09-18T08:13:36;22.30;99.90
16995;DHT22;8614;48.522;9.206;2023-09-18T08:16:06;22.20;99.90
16995;DHT22;8614;48.522;9.206;2023-09-18T08:18:33;22.00;99.90
16995;DHT22;8614;48.522;9.206;2023-09-18T08:21:00;22.00;99.90
16995;DHT22;8614;48.522;9.206;2023-09-18T08:23:27;21.80;99.90
16995;DHT22;8614;48.522;9.206;2023-09-18T08:25:54;21.80;99.90
16995;DHT22;8614;48.522;9.206;2023-09-18T08:28:23;21.70;99.90
16995;DHT22;8614;48.522;9.206;2023-09-18T08:30:51;21.60;99.90
16995;DHT22;8614;48.522;9.206;2023-09-18T08:33:18;21.40;99.90
16995;DHT22;8614;48.522;9.206;2023-09-18T08:35:45;21.20;99.90
16995;DHT22;8614;48.522;9.206;2023-09-18T08:38:13;20.90;99.90
16995;DHT22;8614;48.522;9.206;2023-09-18T08:40:41;20.50;99.90
16995;DHT22;8614;48.522;9.206;2023-09-18T08:43:11;20.20;99.90
16995;DHT22;8614;48.522;9.206;2023-09-18T08:45:42;20.00;99.90
16995;DHT22;8614;48.522;9.206;2023-09-18T08:48:11;19.80;99.90
16995;DHT22;8614;48.522;9.206;2023-09-18T08:50:39;19.70;99.90
16995;DHT22;8614;48.522;9.206;2023-09-18T08:53:06;19.60;99.90
16995;DHT22;8614;48.522;9.206;2023-09-18T08:55:34;19.50;99.90
16995;DHT22;8614;48.522;9.206;2023-09-18T08:58:01;19.50;99.90
16995;DHT22;8614;48.522;9.206;2023-09-18T09:00:28;19.40;99.90
16995;DHT22;8614;48.522;9.206;2023-09-18T09:02:55;19.40;99.90
16995;DHT22;8614;48.522;9.206;2023-09-18T09:05:24;19.30;99.90
16995;DHT22;8614;48.522;9.206;2023-09-18T09:07:51;19.30;99.90
16995;DHT22;8614;48.522;9.206;2023-09-18T09:10:21;19.40;99.90
16995;DHT22;8614;48.522;9.206;2023-09-18T09:12:50;19.40;99.90
16995;DHT22;8614;48.522;9.206;2023-09-18T09:15:19;19.50;99.90
16995;DHT22;8614;48.522;9.206;2023-09-18T09:17:46;19.60;99.90
16995;DHT22;8614;48.522;9.206;2023-09-18T09:20:14;19.50;99.90
16995;DHT22;8614;48.522;9.206;2023-09-18T09:22:48;19.50;99.90
16995;DHT22;8614;48.522;9.206;2023-09-18T09:25:23;19.60;99.90
16995;DHT22;8614;48.522;9.206;2023-09-18T09:27:52;19.70;99.90
16995;DHT22;8614;48.522;9.206;2023-09-18T09:30:20;19.80;99.90
16995;DHT22;8614;48.522;9.206;2023-09-18T09:32:51;19.80;99.90
16995;DHT22;8614;48.522;9.206;2023-09-18T09:35:23;19.80;99.90
16995;DHT22;8614;48.522;9.206;2023-09-18T09:37:55;19.70;99.90
16995;DHT22;8614;48.522;9.206;2023-09-18T09:40:23;19.70;99.90
16995;DHT22;8614;48.522;9.206;2023-09-18T09:42:52;19.60;99.90
16995;DHT22;8614;48.522;9.206;2023-09-18T09:45:19;19.50;99.90
16995;DHT22;8614;48.522;9.206;2023-09-18T09:47:46;19.60;99.90
16995;DHT22;8614;48.522;9.206;2023-09-18T09:50:15;19.50;99.90
16995;DHT22;8614;48.522;9.206;2023-09-18T09:52:46;19.60;99.90
16995;DHT22;8614;48.522;9.206;2023-09-18T09:55:26;19.50;99.90
16995;DHT22;8614;48.522;9.206;2023-09-18T09:57:55;19.50;99.90
16995;DHT22;8614;48.522;9.206;2023-09-18T10:00:29;19.60;99.90
16995;DHT22;8614;48.522;9.206;2023-09-18T10:02:59;19.70;99.90
16995;DHT22;8614;48.522;9.206;2023-09-18T10:05:30;19.80;99.90
16995;DHT22;8614;48.522;9.206;2023-09-18T10:08:01;19.80;99.90
16995;DHT22;8614;48.522;9.206;2023-09-18T10:10:32;19.90;99.90
16995;DHT22;8614;48.522;9.206;2023-09-18T10:13:09;20.00;99.90
16995;DHT22;8614;48.522;9.206;2023-09-18T10:15:37;20.00;99.90
16995;DHT22;8614;48.522;9.206;2023-09-18T10:18:07;19.90;99.90
16995;DHT22;8614;48.522;9.206;2023-09-18T10:20:39;19.90;99.90
16995;DHT22;8614;48.522;9.206;2023-09-18T10:25:59;19.70;99.90
16995;DHT22;8614;48.522;9.206;2023-09-18T10:28:31;19.60;99.90
16995;DHT22;8614;48.522;9.206;2023-09-18T10:31:00;19.70;99.90
16995;DHT22;8614;48.522;9.206;2023-09-18T10:33:30;19.60;99.90
16995;DHT22;8614;48.522;9.206;2023-09-18T10:35:57;19.70;99.90
16995;DHT22;8614;48.522;9.206;2023-09-18T10:38:27;19.70;99.90
16995;DHT22;8614;48.522;9.206;2023-09-18T10:40:57;19.60;99.90
16995;DHT22;8614;48.522;9.206;2023-09-18T10:43:24;19.60;99.90
16995;DHT22;8614;48.522;9.206;2023-09-18T10:45:52;19.50;99.90
16995;DHT22;8614;48.522;9.206;2023-09-18T10:48:20;19.50;99.90
16995;DHT22;8614;48.522;9.206;2023-09-18T10:50:48;19.50;99.90
16995;DHT22;8614;48.522;9.206;2023-09-18T10:53:15;19.50;99.90
16995;DHT22;8614;48.522;9.206;2023-09-18T10:55:42;19.40;99.90
16995;DHT22;8614;48.522;9.206;2023-09-18T10:58:11;19.40;99.90
16995;DHT22;8614;48.522;9.206;2023-09-18T11:00:41;19.40;99.90
16995;DHT22;8614;48.522;9.206;2023-09-18T11:03:13;19.30;99.90
16995;DHT22;8614;48.522;9.206;2023-09-18T11:05:44;19.30;99.90
16995;DHT22;8614;48.522;9.206;2023-09-18T11:08:32;19.30;99.90
16995;DHT22;8614;48.522;9.206;2023-09-18T11:11:01;19.30;99.90
16995;DHT22;8614;48.522;9.206;2023-09-18T11:13:39;19.30;99.90
16995;DHT22;8614;48.522;9.206;2023-09-18T11:16:18;19.30;99.90
16995;DHT22;8614;48.522;9.206;2023-09-18T11:18:51;19.20;99.90
16995;DHT22;8614;48.522;9.206;2023-09-18T11:21:25;19.20;99.90
16995;DHT22;8614;48.522;9.206;2023-09-18T11:23:59;19.30;99.90
16995;DHT22;8614;48.522;9.206;2023-09-18T11:26:29;19.30;99.90
16995;DHT22;8614;48.522;9.206;2023-09-18T11:28:59;19.40;99.90
16995;DHT22;8614;48.522;9.206;2023-09-18T11:31:41;19.40;99.90
16995;DHT22;8614;48.522;9.206;2023-09-18T11:34:19;19.50;99.90
16995;DHT22;8614;48.522;9.206;2023-09-18T11:36:46;19.50;99.90
16995;DHT22;8614;48.522;9.206;2023-09-18T11:39:13;19.50;99.90
16995;DHT22;8614;48.522;9.206;2023-09-18T11:42:06;19.50;99.90
16995;DHT22;8614;48.522;9.206;2023-09-18T11:44:35;19.50;99.90
16995;DHT22;8614;48.522;9.206;2023-09-18T11:47:08;19.50;99.90
16995;DHT22;8614;48.522;9.206;2023-09-18T11:49:39;19.50;99.90
16995;DHT22;8614;48.522;9.206;2023-09-18T11:52:09;19.50;99.90
16995;DHT22;8614;48.522;9.206;2023-09-18T11:54:39;19.40;99.90
16995;DHT22;8614;48.522;9.206;2023-09-18T11:57:06;19.50;99.90
16995;DHT22;8614;48.522;9.206;2023-09-18T11:59:39;19.50;99.90
16995;DHT22;8614;48.522;9.206;2023-09-18T12:02:08;19.60;99.90
16995;DHT22;8614;48.522;9.206;2023-09-18T12:04:35;19.70;99.90
16995;DHT22;8614;48.522;9.206;2023-09-18T12:07:04;19.70;99.90
16995;DHT22;8614;48.522;9.206;2023-09-18T12:09:31;19.70;99.90
16995;DHT22;8614;48.522;9.206;2023-09-18T12:11:59;19.80;99.90
16995;DHT22;8614;48.522;9.206;2023-09-18T12:14:31;19.80;99.90
16995;DHT22;8614;48.522;9.206;2023-09-18T12:17:00;19.70;99.90
16995;DHT22;8614;48.522;9.206;2023-09-18T12:19:28;19.70;99.90
16995;DHT22;8614;48.522;9.206;2023-09-18T12:21:55;19.70;99.90
16995;DHT22;8614;48.522;9.206;2023-09-18T12:24:22;19.80;99.90
16995;DHT22;8614;48.522;9.206;2023-09-18T12:26:51;20.00;99.90
16995;DHT22;8614;48.522;9.206;2023-09-18T12:29:18;20.10;99.90
16995;DHT22;8614;48.522;9.206;2023-09-18T12:31:45;20.30;99.90
16995;DHT22;8614;48.522;9.206;2023-09-18T12:34:17;20.60;99.90
16995;DHT22;8614;48.522;9.206;2023-09-18T12:36:47;21.00;99.90
16995;DHT22;8614;48.522;9.206;2023-09-18T12:39:14;21.30;99.90
16995;DHT22;8614;48.522;9.206;2023-09-18T12:41:42;21.50;99.90
16995;DHT22;8614;48.522;9.206;2023-09-18T12:44:09;21.60;99.90
16995;DHT22;8614;48.522;9.206;2023-09-18T12:46:38;21.70;99.90
16995;DHT22;8614;48.522;9.206;2023-09-18T12:49:21;21.80;99.90
16995;DHT22;8614;48.522;9.206;2023-09-18T12:51:56;21.80;99.90
16995;DHT22;8614;48.522;9.206;2023-09-18T12:54:39;21.80;99.90
16995;DHT22;8614;48.522;9.206;2023-09-18T12:57:07;22.00;99.90
16995;DHT22;8614;48.522;9.206;2023-09-18T13:03:18;22.10;99.90
16995;DHT22;8614;48.522;9.206;2023-09-18T13:05:46;22.10;99.90
16995;DHT22;8614;48.522;9.206;2023-09-18T13:08:14;22.10;99.90
16995;DHT22;8614;48.522;9.206;2023-09-18T13:10:43;22.10;99.90
16995;DHT22;8614;48.522;9.206;2023-09-18T13:13:16;22.20;99.90
16995;DHT22;8614;48.522;9.206;2023-09-18T13:15:52;22.30;99.90
16995;DHT22;8614;48.522;9.206;2023-09-18T13:18:19;22.30;99.90
16995;DHT22;8614;48.522;9.206;2023-09-18T13:20:47;22.20;99.90
16995;DHT22;8614;48.522;9.206;2023-09-18T13:23:15;22.30;99.90
16995;DHT22;8614;48.522;9.206;2023-09-18T13:25:43;22.30;99.90
16995;DHT22;8614;48.522;9.206;2023-09-18T13:31:39;22.60;99.90
16995;DHT22;8614;48.522;9.206;2023-09-18T13:34:06;22.60;99.90
16995;DHT22;8614;48.522;9.206;2023-09-18T13:36:37;22.60;99.90
16995;DHT22;8614;48.522;9.206;2023-09-18T13:39:04;22.50;99.90
16995;DHT22;8614;48.522;9.206;2023-09-18T13:41:32;22.30;99.90
16995;DHT22;8614;48.522;9.206;2023-09-18T13:43:59;22.20;99.90
16995;DHT22;8614;48.522;9.206;2023-09-18T13:46:25;22.30;99.90
16995;DHT22;8614;48.522;9.206;2023-09-18T13:48:53;22.40;99.90
16995;DHT22;8614;48.522;9.206;2023-09-18T13:51:19;22.50;99.90
16995;DHT22;8614;48.522;9.206;2023-09-18T13:53:48;22.50;99.90
16995;DHT22;8614;48.522;9.206;2023-09-18T13:59:47;22.60;99.90
16995;DHT22;8614;48.522;9.206;2023-09-18T14:02:15;22.70;99.90
16995;DHT22;8614;48.522;9.206;2023-09-18T14:04:42;22.60;99.90
16995;DHT22;8614;48.522;9.206;2023-09-18T14:07:10;22.60;99.90
16995;DHT22;8614;48.522;9.206;2023-09-18T14:09:39;22.50;99.90
16995;DHT22;8614;48.522;9.206;2023-09-18T14:12:06;22.40;99.90
16995;DHT22;8614;48.522;9.206;2023-09-18T14:14:33;22.40;99.90
16995;DHT22;8614;48.522;9.206;2023-09-18T14:17:01;22.40;99.90
16995;DHT22;8614;48.522;9.206;2023-09-18T14:19:28;22.40;99.90
16995;DHT22;8614;48.522;9.206;2023-09-18T14:21:55;22.50;99.90
16995;DHT22;8614;48.522;9.206;2023-09-18T14:24:21;22.40;99.90
16995;DHT22;8614;48.522;9.206;2023-09-18T14:26:57;22.40;99.90
16995;DHT22;8614;48.522;9.206;2023-09-18T14:29:24;22.50;99.90
16995;DHT22;8614;48.522;9.206;2023-09-18T14:31:51;22.50;99.90
16995;DHT22;8614;48.522;9.206;2023-09-18T14:34:18;22.40;99.90
16995;DHT22;8614;48.522;9.206;2023-09-18T14:36:45;22.50;99.90
16995;DHT22;8614;48.522;9.206;2023-09-18T14:39:12;22.40;99.90
16995;DHT22;8614;48.522;9.206;2023-09-18T14:41:39;22.40;99.90
16995;DHT22;8614;48.522;9.206;2023-09-18T14:44:15;22.30;99.90
16995;DHT22;8614;48.522;9.206;2023-09-18T14:46:46;22.30;99.90
16995;DHT22;8614;48.522;9.206;2023-09-18T14:49:16;22.30;99.90
16995;DHT22;8614;48.522;9.206;2023-09-18T14:51:45;22.30;99.90
16995;DHT22;8614;48.522;9.206;2023-09-18T14:54:12;22.30;99.90
16995;DHT22;8614;48.522;9.206;2023-09-18T14:56:40;22.30;99.90
16995;DHT22;8614;48.522;9.206;2023-09-18T14:59:08;22.30;99.90
16995;DHT22;8614;48.522;9.206;2023-09-18T15:01:35;22.30;99.90
16995;DHT22;8614;48.522;9.206;2023-09-18T15:04:03;22.30;99.90
16995;DHT22;8614;48.522;9.206;2023-09-18T15:06:30;22.30;99.90
16995;DHT22;8614;48.522;9.206;2023-09-18T15:08:57;22.30;99.90
16995;DHT22;8614;48.522;9.206;2023-09-18T15:11:24;22.40;99.90
16995;DHT22;8614;48.522;9.206;2023-09-18T15:13:51;22.30;99.90
16995;DHT22;8614;48.522;9.206;2023-09-18T15:16:19;22.30;99.90
16995;DHT22;8614;48.522;9.206;2023-09-18T15:18:46;22.20;99.90
16995;DHT22;8614;48.522;9.206;2023-09-18T15:21:15;22.20;99.90
16995;DHT22;8614;48.522;9.206;2023-09-18T15:23:41;22.10;99.90
16995;DHT22;8614;48.522;9.206;2023-09-18T15:26:08;22.10;99.90
16995;DHT22;8614;48.522;9.206;2023-09-18T15:28:35;22.20;99.90
16995;DHT22;8614;48.522;9.206;2023-09-18T15:31:02;22.30;99.90
16995;DHT22;8614;48.522;9.206;2023-09-18T15:33:30;22.30;99.90
16995;DHT22;8614;48.522;9.206;2023-09-18T15:35:57;22.30;99.90
16995;DHT22;8614;48.522;9.206;2023-09-18T15:38:24;22.20;99.90
16995;DHT22;8614;48.522;9.206;2023-09-18T15:40:52;22.10;99.90
16995;DHT22;8614;48.522;9.206;2023-09-18T15:43:19;22.00;99.90
16995;DHT22;8614;48.522;9.206;2023-09-18T15:45:46;21.90;99.90
16995;DHT22;8614;48.522;9.206;2023-09-18T15:48:13;21.70;99.90
16995;DHT22;8614;48.522;9.206;2023-09-18T15:50:41;21.50;99.90
16995;DHT22;8614;48.522;9.206;2023-09-18T15:53:09;21.40;99.90
16995;DHT22;8614;48.522;9.206;2023-09-18T15:55:36;21.30;99.90
16995;DHT22;8614;48.522;9.206;2023-09-18T15:58:03;21.20;99.90
16995;DHT22;8614;48.522;9.206;2023-09-18T16:00:30;21.20;99.90
16995;DHT22;8614;48.522;9.206;2023-09-18T16:02:57;21.20;99.90
16995;DHT22;8614;48.522;9.206;2023-09-18T16:05:24;21.10;99.90
16995;DHT22;8614;48.522;9.206;2023-09-18T16:07:52;21.10;99.90